Terminal Aerodrome Forecast
Issued by NWS Shreveport, LA

Home | Current Version | Previous Version | Text Only | Print | Product List | Glossary On
Versions: 1 2 3 4 5 6 7 8 9 10 11 12 13 14 15 16 17 18 19 20 21 22 23 24
028
FTUS44 KSHV 232345
TAFTYR
TAF
KTYR 232345Z 2400/2424 29006KT P6SM -RA BKN070 BKN090 OVC110
     FM240100 33007KT P6SM VCSH BKN020 OVC035
     FM240300 32008KT P6SM BKN015
     FM240600 30005KT P6SM SCT015
     FM241400 31016G27KT P6SM SKC=

USA.gov is the U.S. government's official web portal to all federal, state and local government web resources and services.